createdAt,value
2019-03-25T00:00:51.047Z,1017.93
2019-03-25T00:01:51.051Z,1017.89
2019-03-25T00:02:51.062Z,1017.87
2019-03-25T00:03:51.033Z,1017.85
2019-03-25T00:04:51.023Z,1017.82
2019-03-25T00:05:51.216Z,1017.84
2019-03-25T00:06:51.010Z,1017.83
2019-03-25T00:07:51.000Z,1017.83
2019-03-25T00:09:04.524Z,1017.80
2019-03-25T00:09:50.987Z,1017.81
2019-03-25T00:10:51.183Z,1017.82
2019-03-25T00:11:50.971Z,1017.77
2019-03-25T00:12:50.980Z,1017.72
2019-03-25T00:13:51.165Z,1017.69
2019-03-25T00:14:50.961Z,1017.71
2019-03-25T00:15:50.950Z,1017.66
2019-03-25T00:16:50.956Z,1017.64
2019-03-25T00:17:50.938Z,1017.60
2019-03-25T00:18:50.926Z,1017.62
2019-03-25T00:19:50.933Z,1017.65
2019-03-25T00:20:51.116Z,1017.62
2019-03-25T00:21:50.912Z,1017.60
2019-03-25T00:22:50.904Z,1017.61
2019-03-25T00:23:50.900Z,1017.60
2019-03-25T00:24:50.898Z,1017.55
2019-03-25T00:25:50.891Z,1017.49
2019-03-25T00:26:50.919Z,1017.56
2019-03-25T00:27:50.873Z,1017.50
2019-03-25T00:28:50.865Z,1017.50
2019-03-25T00:29:50.858Z,1017.51
2019-03-25T00:30:50.867Z,1017.45
2019-03-25T00:31:50.849Z,1017.48
2019-03-25T00:32:50.868Z,1017.44
2019-03-25T00:33:50.836Z,1017.45
2019-03-25T00:34:50.826Z,1017.42
2019-03-25T00:35:50.817Z,1017.41
2019-03-25T00:36:51.014Z,1017.42
2019-03-25T00:37:51.007Z,1017.39
2019-03-25T00:38:50.808Z,1017.37
2019-03-25T00:39:50.794Z,1017.35
2019-03-25T00:40:50.834Z,1017.39
2019-03-25T00:41:50.774Z,1017.39
2019-03-25T00:42:50.971Z,1017.38
2019-03-25T00:43:50.767Z,1017.38
2019-03-25T00:44:50.760Z,1017.33
2019-03-25T00:45:50.751Z,1017.27
2019-03-25T00:46:50.959Z,1017.27
2019-03-25T00:47:50.747Z,1017.28
2019-03-25T00:48:50.939Z,1017.27
2019-03-25T00:49:50.730Z,1017.30
2019-03-25T00:50:50.939Z,1017.24
2019-03-25T00:51:50.919Z,1017.23
2019-03-25T00:52:50.709Z,1017.23
2019-03-25T00:53:50.719Z,1017.20
2019-03-25T00:54:50.698Z,1017.25
2019-03-25T00:55:50.692Z,1017.22
2019-03-25T00:56:50.887Z,1017.21
2019-03-25T00:57:50.671Z,1017.15
2019-03-25T00:58:50.662Z,1017.14
2019-03-25T00:59:50.667Z,1017.12
2019-03-25T01:00:50.666Z,1017.14
2019-03-25T01:01:50.859Z,1017.12
2019-03-25T01:02:50.841Z,1017.10
2019-03-25T01:03:50.836Z,1017.07
2019-03-25T01:04:50.626Z,1017.11
2019-03-25T01:05:50.624Z,1017.10
2019-03-25T01:06:50.814Z,1017.05
2019-03-25T01:07:50.613Z,1017.01
2019-03-25T01:08:50.817Z,1016.98
2019-03-25T01:09:50.814Z,1017.00
2019-03-25T01:10:50.596Z,1016.98
2019-03-25T01:11:50.576Z,1017.00
2019-03-25T01:12:50.600Z,1017.03
2019-03-25T01:13:50.631Z,1017.00
2019-03-25T01:14:50.570Z,1016.95
2019-03-25T01:15:50.583Z,1016.95
2019-03-25T01:16:50.561Z,1016.91
2019-03-25T01:17:50.754Z,1016.90
2019-03-25T01:18:50.534Z,1016.87
2019-03-25T01:19:50.529Z,1016.88
2019-03-25T01:20:50.525Z,1016.86
2019-03-25T01:21:50.525Z,1016.84
2019-03-25T01:22:50.520Z,1016.84
2019-03-25T01:23:50.518Z,1016.77
2019-03-25T01:25:01.202Z,1016.79
2019-03-25T01:25:50.488Z,1016.79
2019-03-25T01:26:50.477Z,1016.74
2019-03-25T01:27:50.470Z,1016.70
2019-03-25T01:28:50.511Z,1016.74
2019-03-25T01:29:50.491Z,1016.70
2019-03-25T01:30:50.662Z,1016.72
2019-03-25T01:31:50.447Z,1016.65
2019-03-25T01:32:50.436Z,1016.68
2019-03-25T01:33:50.658Z,1016.65
2019-03-25T01:34:50.424Z,1016.61
2019-03-25T01:35:50.453Z,1016.62
2019-03-25T01:36:50.409Z,1016.60
2019-03-25T01:37:50.408Z,1016.60
2019-03-25T01:38:50.607Z,1016.59
2019-03-25T01:39:50.396Z,1016.53
2019-03-25T01:40:50.590Z,1016.54
2019-03-25T01:41:50.388Z,1016.54
2019-03-25T01:42:50.380Z,1016.55
2019-03-25T01:43:50.376Z,1016.51
2019-03-25T01:44:50.376Z,1016.46
2019-03-25T01:45:50.378Z,1016.48
2019-03-25T01:46:50.357Z,1016.45
2019-03-25T01:47:50.362Z,1016.42
2019-03-25T01:48:50.342Z,1016.39
2019-03-25T01:49:50.333Z,1016.36
2019-03-25T01:50:50.315Z,1016.32
2019-03-25T01:51:50.315Z,1016.31
2019-03-25T01:52:50.312Z,1016.32
2019-03-25T01:53:50.302Z,1016.29
2019-03-25T01:54:50.295Z,1016.28
2019-03-25T01:55:50.309Z,1016.29
2019-03-25T01:56:50.277Z,1016.27
2019-03-25T01:57:50.283Z,1016.26
2019-03-25T01:58:50.281Z,1016.28
2019-03-25T01:59:50.274Z,1016.25
2019-03-25T02:00:50.252Z,1016.25
2019-03-25T02:01:50.240Z,1016.23
2019-03-25T02:02:50.258Z,1016.20
2019-03-25T02:03:50.235Z,1016.19
2019-03-25T02:04:50.228Z,1016.16
2019-03-25T02:05:50.225Z,1016.16
2019-03-25T02:06:50.238Z,1016.17
2019-03-25T02:07:50.433Z,1016.14
2019-03-25T02:08:50.415Z,1016.06
2019-03-25T02:09:50.190Z,1016.04
2019-03-25T02:10:50.188Z,1016.11
2019-03-25T02:11:50.176Z,1016.07
2019-03-25T02:12:50.168Z,1016.12
2019-03-25T02:13:50.161Z,1016.08
2019-03-25T02:14:50.161Z,1016.05
2019-03-25T02:15:50.148Z,1016.04
2019-03-25T02:16:50.407Z,1015.99
2019-03-25T02:17:50.145Z,1016.01
2019-03-25T02:18:50.137Z,1015.95
2019-03-25T02:19:50.148Z,1015.90
2019-03-25T02:20:50.340Z,1015.98
2019-03-25T02:21:50.119Z,1015.88
2019-03-25T02:22:50.562Z,1015.90
2019-03-25T02:23:50.131Z,1015.84
2019-03-25T02:24:50.096Z,1015.86
2019-03-25T02:25:50.113Z,1015.82
2019-03-25T02:26:50.098Z,1015.82
2019-03-25T02:27:50.074Z,1015.84
2019-03-25T02:28:50.069Z,1015.88
2019-03-25T02:29:50.267Z,1015.84
2019-03-25T02:30:50.290Z,1015.79
2019-03-25T02:31:50.255Z,1015.78
2019-03-25T02:32:50.263Z,1015.77
2019-03-25T02:33:50.038Z,1015.76
2019-03-25T02:34:50.060Z,1015.73
2019-03-25T02:35:50.036Z,1015.71
2019-03-25T02:36:50.045Z,1015.74
2019-03-25T02:37:50.012Z,1015.71
2019-03-25T02:38:50.003Z,1015.71
2019-03-25T02:39:49.998Z,1015.68
2019-03-25T02:40:49.987Z,1015.68
2019-03-25T02:41:49.987Z,1015.68
2019-03-25T02:42:50.198Z,1015.64
2019-03-25T02:43:50.178Z,1015.63
2019-03-25T02:44:50.182Z,1015.61
2019-03-25T02:45:50.163Z,1015.63
2019-03-25T02:46:49.972Z,1015.65
2019-03-25T02:47:49.935Z,1015.60
2019-03-25T02:48:49.940Z,1015.60
2019-03-25T02:49:49.933Z,1015.59
2019-03-25T02:50:49.923Z,1015.60
2019-03-25T02:51:50.128Z,1015.55
2019-03-25T02:52:49.943Z,1015.55
2019-03-25T02:53:49.915Z,1015.56
2019-03-25T02:54:49.899Z,1015.53
2019-03-25T02:55:50.094Z,1015.54
2019-03-25T02:56:49.931Z,1015.54
2019-03-25T02:57:50.084Z,1015.51
2019-03-25T02:58:50.080Z,1015.49
2019-03-25T02:59:49.877Z,1015.43
2019-03-25T03:00:49.895Z,1015.40
2019-03-25T03:01:49.854Z,1015.37
2019-03-25T03:02:49.844Z,1015.38
2019-03-25T03:03:49.829Z,1015.39
2019-03-25T03:04:50.043Z,1015.38
2019-03-25T03:05:49.820Z,1015.35
2019-03-25T03:06:49.812Z,1015.33
2019-03-25T03:07:49.808Z,1015.30
2019-03-25T03:08:49.801Z,1015.27
2019-03-25T03:09:49.795Z,1015.24
2019-03-25T03:10:49.787Z,1015.22
2019-03-25T03:11:49.791Z,1015.20
2019-03-25T03:12:49.774Z,1015.23
2019-03-25T03:13:49.782Z,1015.25
2019-03-25T03:14:49.760Z,1015.24
2019-03-25T03:15:49.760Z,1015.24
2019-03-25T03:16:50.009Z,1015.18
2019-03-25T03:17:49.758Z,1015.12
2019-03-25T03:18:49.734Z,1015.16
2019-03-25T03:19:49.727Z,1015.16
2019-03-25T03:20:49.722Z,1015.12
2019-03-25T03:21:49.717Z,1015.13
2019-03-25T03:22:49.907Z,1015.13
2019-03-25T03:23:49.715Z,1015.07
2019-03-25T03:24:49.714Z,1015.04
2019-03-25T03:25:57.361Z,1015.02
2019-03-25T03:26:49.677Z,1015.01
2019-03-25T03:27:49.676Z,1015.00
2019-03-25T03:28:49.680Z,1014.98
2019-03-25T03:29:49.679Z,1014.98
2019-03-25T03:30:49.687Z,1014.98
2019-03-25T03:31:49.650Z,1014.97
2019-03-25T03:32:49.671Z,1015.00
2019-03-25T03:33:49.631Z,1014.97
2019-03-25T03:34:49.635Z,1014.88
2019-03-25T03:35:49.624Z,1014.85
2019-03-25T03:36:49.623Z,1014.86
2019-03-25T03:37:49.607Z,1014.89
2019-03-25T03:38:49.815Z,1014.86
2019-03-25T03:39:49.797Z,1014.83
2019-03-25T03:40:49.590Z,1014.81
2019-03-25T03:41:49.582Z,1014.82
2019-03-25T03:42:49.576Z,1014.82
2019-03-25T03:43:49.573Z,1014.82
2019-03-25T03:44:49.587Z,1014.81
2019-03-25T03:45:49.549Z,1014.83
2019-03-25T03:46:49.547Z,1014.84
2019-03-25T03:47:49.558Z,1014.87
2019-03-25T03:48:49.551Z,1014.86
2019-03-25T03:49:49.522Z,1014.78
2019-03-25T03:50:49.520Z,1014.81
2019-03-25T03:51:49.717Z,1014.84
2019-03-25T03:52:49.507Z,1014.83
2019-03-25T03:53:49.715Z,1014.79
2019-03-25T03:54:49.710Z,1014.84
2019-03-25T03:55:49.490Z,1014.81
2019-03-25T03:56:49.499Z,1014.75
2019-03-25T03:57:49.472Z,1014.75
2019-03-25T03:58:49.469Z,1014.82
2019-03-25T03:59:49.455Z,1014.82
2019-03-25T04:00:49.452Z,1014.78
2019-03-25T04:01:49.644Z,1014.81
2019-03-25T04:02:49.458Z,1014.78
2019-03-25T04:03:49.439Z,1014.73
2019-03-25T04:04:49.433Z,1014.76
2019-03-25T04:05:49.421Z,1014.76
2019-03-25T04:06:49.618Z,1014.85
2019-03-25T04:07:49.405Z,1014.75
2019-03-25T04:08:49.401Z,1014.79
2019-03-25T04:09:49.389Z,1014.76
2019-03-25T04:10:49.584Z,1014.79
2019-03-25T04:11:49.374Z,1014.85
2019-03-25T04:12:49.594Z,1014.83
2019-03-25T04:13:49.396Z,1014.78
2019-03-25T04:14:49.563Z,1014.79
2019-03-25T04:15:49.348Z,1014.77
2019-03-25T04:16:49.379Z,1014.79
2019-03-25T04:17:49.361Z,1014.83
2019-03-25T04:18:49.364Z,1014.81
2019-03-25T04:19:49.322Z,1014.85
2019-03-25T04:20:49.534Z,1014.95
2019-03-25T04:21:49.337Z,1014.89
2019-03-25T04:22:49.330Z,1014.91
2019-03-25T04:23:49.501Z,1014.95
2019-03-25T04:24:49.291Z,1014.87
2019-03-25T04:25:49.282Z,1014.89
2019-03-25T04:26:49.285Z,1014.90
2019-03-25T04:27:49.277Z,1014.93
2019-03-25T04:28:49.271Z,1014.93
2019-03-25T04:29:49.256Z,1014.94
2019-03-25T04:30:49.239Z,1014.96
2019-03-25T04:31:49.245Z,1014.98
2019-03-25T04:32:49.263Z,1014.98
2019-03-25T04:33:49.242Z,1014.91
2019-03-25T04:34:49.220Z,1014.96
2019-03-25T04:35:49.221Z,1014.96
2019-03-25T04:36:49.201Z,1014.93
2019-03-25T04:37:49.200Z,1014.96
2019-03-25T04:38:49.195Z,1014.91
2019-03-25T04:39:49.193Z,1014.92
2019-03-25T04:40:49.194Z,1014.92
2019-03-25T04:41:49.174Z,1014.91
2019-03-25T04:42:49.364Z,1014.90
2019-03-25T04:43:49.155Z,1014.87
2019-03-25T04:44:49.163Z,1014.89
2019-03-25T04:45:49.364Z,1014.85
2019-03-25T04:46:49.133Z,1014.87
2019-03-25T04:47:49.129Z,1014.83
2019-03-25T04:48:49.320Z,1014.88
2019-03-25T04:49:49.111Z,1014.89
2019-03-25T04:50:49.099Z,1014.96
2019-03-25T04:51:49.118Z,1014.97
2019-03-25T04:52:49.117Z,1014.97
2019-03-25T04:53:49.085Z,1014.95
2019-03-25T04:54:49.280Z,1014.99
2019-03-25T04:55:49.071Z,1014.99
2019-03-25T04:56:49.062Z,1014.97
2019-03-25T04:57:49.056Z,1014.94
2019-03-25T04:58:49.089Z,1014.91
2019-03-25T04:59:49.049Z,1014.92
2019-03-25T05:00:49.046Z,1014.88
2019-03-25T05:01:49.038Z,1014.89
2019-03-25T05:02:49.240Z,1014.87
2019-03-25T05:03:49.021Z,1014.89
2019-03-25T05:04:49.022Z,1014.95
2019-03-25T05:05:48.993Z,1014.91
2019-03-25T05:06:48.986Z,1014.86
2019-03-25T05:07:48.983Z,1014.95
2019-03-25T05:08:49.179Z,1014.84
2019-03-25T05:09:48.978Z,1014.87
2019-03-25T05:10:48.959Z,1014.83
2019-03-25T05:11:48.963Z,1014.87
2019-03-25T05:12:49.166Z,1014.84
2019-03-25T05:13:48.952Z,1014.86
2019-03-25T05:14:48.927Z,1014.90
2019-03-25T05:15:48.935Z,1014.93
2019-03-25T05:16:48.954Z,1014.93
2019-03-25T05:17:48.919Z,1014.89
2019-03-25T05:18:48.909Z,1014.87
2019-03-25T05:19:48.908Z,1014.89
2019-03-25T05:20:48.890Z,1014.89
2019-03-25T05:21:48.884Z,1014.91
2019-03-25T05:22:48.875Z,1014.90
2019-03-25T05:23:49.073Z,1014.93
2019-03-25T05:24:48.878Z,1014.96
2019-03-25T05:25:48.864Z,1014.90
2019-03-25T05:26:51.348Z,1014.99
2019-03-25T05:27:48.848Z,1014.96
2019-03-25T05:28:48.835Z,1014.94
2019-03-25T05:29:48.821Z,1015.02
2019-03-25T05:30:48.812Z,1015.02
2019-03-25T05:31:48.819Z,1014.98
2019-03-25T05:32:48.813Z,1015.02
2019-03-25T05:33:48.819Z,1014.97
2019-03-25T05:34:48.990Z,1015.04
2019-03-25T05:35:48.981Z,1015.01
2019-03-25T05:36:48.773Z,1015.07
2019-03-25T05:37:48.969Z,1015.08
2019-03-25T05:38:48.753Z,1015.11
2019-03-25T05:39:48.746Z,1015.15
2019-03-25T05:40:48.746Z,1015.12
2019-03-25T05:41:48.745Z,1015.15
2019-03-25T05:42:48.728Z,1015.18
2019-03-25T05:43:48.733Z,1015.22
2019-03-25T05:44:48.746Z,1015.22
2019-03-25T05:45:48.703Z,1015.18
2019-03-25T05:46:48.715Z,1015.24
2019-03-25T05:47:48.688Z,1015.21
2019-03-25T05:48:48.683Z,1015.19
2019-03-25T05:49:48.678Z,1015.23
2019-03-25T05:50:48.886Z,1015.24
2019-03-25T05:51:48.660Z,1015.22
2019-03-25T05:52:48.670Z,1015.25
2019-03-25T05:53:48.647Z,1015.26
2019-03-25T05:54:48.643Z,1015.28
2019-03-25T05:55:48.631Z,1015.27
2019-03-25T05:56:48.638Z,1015.30
2019-03-25T05:57:48.626Z,1015.26
2019-03-25T05:58:48.626Z,1015.17
2019-03-25T05:59:48.616Z,1015.22
2019-03-25T06:00:48.611Z,1015.24
2019-03-25T06:01:48.587Z,1015.21
2019-03-25T06:02:48.790Z,1015.21
2019-03-25T06:03:48.773Z,1015.20
2019-03-25T06:04:48.571Z,1015.24
2019-03-25T06:05:48.573Z,1015.25
2019-03-25T06:06:48.757Z,1015.22
2019-03-25T06:07:48.556Z,1015.26
2019-03-25T06:08:48.549Z,1015.29
2019-03-25T06:09:48.525Z,1015.30
2019-03-25T06:10:48.518Z,1015.29
2019-03-25T06:11:48.512Z,1015.34
2019-03-25T06:12:48.520Z,1015.33
2019-03-25T06:13:48.515Z,1015.29
2019-03-25T06:14:48.704Z,1015.29
2019-03-25T06:15:48.506Z,1015.30
2019-03-25T06:16:48.505Z,1015.32
2019-03-25T06:17:48.472Z,1015.28
2019-03-25T06:18:48.466Z,1015.32
2019-03-25T06:19:48.452Z,1015.33
2019-03-25T06:20:48.503Z,1015.31
2019-03-25T06:21:48.433Z,1015.25
2019-03-25T06:22:48.428Z,1015.27
2019-03-25T06:23:48.431Z,1015.31
2019-03-25T06:24:48.438Z,1015.31
2019-03-25T06:25:48.409Z,1015.31
2019-03-25T06:26:48.396Z,1015.36
2019-03-25T06:27:48.415Z,1015.40
2019-03-25T06:28:48.416Z,1015.40
2019-03-25T06:29:48.392Z,1015.41
2019-03-25T06:30:48.370Z,1015.38
2019-03-25T06:31:48.581Z,1015.41
2019-03-25T06:32:48.380Z,1015.37
2019-03-25T06:33:48.356Z,1015.44
2019-03-25T06:34:48.354Z,1015.41
2019-03-25T06:35:48.332Z,1015.39
2019-03-25T06:36:48.336Z,1015.44
2019-03-25T06:37:48.319Z,1015.51
2019-03-25T06:38:48.322Z,1015.54
2019-03-25T06:39:48.303Z,1015.48
2019-03-25T06:40:49.309Z,1015.53
2019-03-25T06:41:48.287Z,1015.50
2019-03-25T06:42:48.285Z,1015.51
2019-03-25T06:43:48.272Z,1015.46
2019-03-25T06:44:48.263Z,1015.49
2019-03-25T06:45:48.459Z,1015.52
2019-03-25T06:46:48.257Z,1015.51
2019-03-25T06:47:48.255Z,1015.44
2019-03-25T06:48:48.457Z,1015.50
2019-03-25T06:49:48.245Z,1015.55
2019-03-25T06:50:48.222Z,1015.50
2019-03-25T06:51:48.214Z,1015.55
2019-03-25T06:52:48.211Z,1015.56
2019-03-25T06:53:48.208Z,1015.59
2019-03-25T06:54:48.190Z,1015.51
2019-03-25T06:55:48.392Z,1015.53
2019-03-25T06:56:48.379Z,1015.56
2019-03-25T06:57:48.185Z,1015.55
2019-03-25T06:58:48.363Z,1015.61
2019-03-25T06:59:48.361Z,1015.60
2019-03-25T07:00:48.353Z,1015.60
2019-03-25T07:01:48.138Z,1015.62
2019-03-25T07:02:48.146Z,1015.61
2019-03-25T07:03:48.128Z,1015.61
2019-03-25T07:04:48.118Z,1015.66
2019-03-25T07:05:48.317Z,1015.62
2019-03-25T07:06:48.101Z,1015.59
2019-03-25T07:07:48.115Z,1015.58
2019-03-25T07:08:48.091Z,1015.57
2019-03-25T07:09:48.079Z,1015.62
2019-03-25T07:10:48.097Z,1015.56
2019-03-25T07:11:48.073Z,1015.63
2019-03-25T07:12:48.066Z,1015.57
2019-03-25T07:13:48.053Z,1015.61
2019-03-25T07:14:48.042Z,1015.61
2019-03-25T07:15:48.051Z,1015.58
2019-03-25T07:16:48.030Z,1015.59
2019-03-25T07:17:48.027Z,1015.59
2019-03-25T07:18:48.014Z,1015.59
2019-03-25T07:19:48.032Z,1015.59
2019-03-25T07:20:48.021Z,1015.64
2019-03-25T07:21:48.000Z,1015.65
2019-03-25T07:22:47.995Z,1015.63
2019-03-25T07:23:47.980Z,1015.58
2019-03-25T07:24:47.985Z,1015.56
2019-03-25T07:25:47.968Z,1015.61
2019-03-25T07:26:47.972Z,1015.63
2019-03-25T07:27:47.968Z,1015.64
2019-03-25T07:28:47.954Z,1015.61
2019-03-25T07:29:47.944Z,1015.59
2019-03-25T07:30:47.950Z,1015.51
2019-03-25T07:31:47.923Z,1015.55
2019-03-25T07:32:47.915Z,1015.51
2019-03-25T07:33:47.913Z,1015.60
2019-03-25T07:34:47.908Z,1015.62
2019-03-25T07:35:48.115Z,1015.55
2019-03-25T07:36:48.094Z,1015.56
2019-03-25T07:37:47.881Z,1015.62
2019-03-25T07:38:47.877Z,1015.58
2019-03-25T07:39:47.873Z,1015.55
2019-03-25T07:40:47.865Z,1015.60
2019-03-25T07:41:47.866Z,1015.68
2019-03-25T07:42:47.859Z,1015.66
2019-03-25T07:43:47.845Z,1015.66
2019-03-25T07:44:48.034Z,1015.69
2019-03-25T07:45:47.826Z,1015.65
2019-03-25T07:46:47.834Z,1015.60
2019-03-25T07:47:47.846Z,1015.73
2019-03-25T07:48:47.806Z,1015.60
2019-03-25T07:49:47.798Z,1015.73
2019-03-25T07:50:47.794Z,1015.68
2019-03-25T07:51:47.792Z,1015.82
2019-03-25T07:52:47.775Z,1015.72
2019-03-25T07:53:47.778Z,1015.64
2019-03-25T07:54:47.978Z,1015.65
2019-03-25T07:55:47.970Z,1015.74
2019-03-25T07:56:47.804Z,1015.67
2019-03-25T07:57:48.775Z,1015.87
2019-03-25T07:58:47.778Z,1015.84
2019-03-25T07:59:47.751Z,1015.70
2019-03-25T08:00:47.782Z,1015.69
2019-03-25T08:01:47.729Z,1015.91
2019-03-25T08:02:47.732Z,1015.93
2019-03-25T08:03:47.755Z,1015.75
2019-03-25T08:04:47.700Z,1015.75
2019-03-25T08:05:47.733Z,1015.73
2019-03-25T08:06:47.709Z,1015.87
2019-03-25T08:07:47.676Z,1015.68
2019-03-25T08:08:47.694Z,1015.94
2019-03-25T08:09:47.663Z,1015.82
2019-03-25T08:10:47.661Z,1015.74
2019-03-25T08:11:47.666Z,1015.78
2019-03-25T08:12:47.652Z,1015.82
2019-03-25T08:13:47.647Z,1015.78
2019-03-25T08:14:47.628Z,1015.95
2019-03-25T08:15:47.631Z,1015.89
2019-03-25T08:16:47.621Z,1015.94
2019-03-25T08:17:47.615Z,1015.77
2019-03-25T08:18:47.616Z,1015.81
2019-03-25T08:19:47.599Z,1015.72
2019-03-25T08:20:47.792Z,1015.79
2019-03-25T08:21:47.783Z,1015.91
2019-03-25T08:22:47.583Z,1015.85
2019-03-25T08:23:47.783Z,1015.72
2019-03-25T08:24:47.586Z,1015.75
2019-03-25T08:25:47.574Z,1015.67
2019-03-25T08:26:47.552Z,1015.70
2019-03-25T08:27:59.220Z,1015.75
2019-03-25T08:28:47.768Z,1015.67
2019-03-25T08:29:47.551Z,1015.67
2019-03-25T08:30:47.535Z,1015.65
2019-03-25T08:31:47.518Z,1015.67
2019-03-25T08:32:47.517Z,1015.67
2019-03-25T08:33:47.509Z,1015.63
2019-03-25T08:34:47.510Z,1015.73
2019-03-25T08:35:47.492Z,1015.64
2019-03-25T08:36:47.491Z,1015.71
2019-03-25T08:37:47.476Z,1015.80
2019-03-25T08:38:47.474Z,1015.75
2019-03-25T08:39:47.483Z,1015.75
2019-03-25T08:40:47.479Z,1015.69
2019-03-25T08:41:47.462Z,1015.70
2019-03-25T08:42:47.672Z,1015.63
2019-03-25T08:43:50.204Z,1015.69
2019-03-25T08:44:47.433Z,1015.65
2019-03-25T08:45:47.438Z,1015.72
2019-03-25T08:46:47.443Z,1015.79
2019-03-25T08:47:47.411Z,1015.75
2019-03-25T08:48:47.422Z,1015.72
2019-03-25T08:49:47.611Z,1015.72
2019-03-25T08:50:47.393Z,1015.73
2019-03-25T08:51:47.386Z,1015.80
2019-03-25T08:52:47.381Z,1015.70
2019-03-25T08:53:47.387Z,1015.81
2019-03-25T08:54:47.398Z,1015.77
2019-03-25T08:55:47.358Z,1015.76
2019-03-25T08:56:47.568Z,1015.81
2019-03-25T08:57:47.353Z,1015.78
2019-03-25T08:58:47.343Z,1015.79
2019-03-25T08:59:47.535Z,1015.84
2019-03-25T09:00:47.328Z,1015.81
2019-03-25T09:01:47.524Z,1015.84
2019-03-25T09:02:47.312Z,1015.91
2019-03-25T09:03:47.294Z,1015.85
2019-03-25T09:04:47.289Z,1015.90
2019-03-25T09:05:47.290Z,1015.94
2019-03-25T09:06:48.018Z,1016.04
2019-03-25T09:07:47.272Z,1016.00
2019-03-25T09:08:47.275Z,1016.00
2019-03-25T09:09:47.471Z,1015.99
2019-03-25T09:10:47.467Z,1016.01
2019-03-25T09:11:47.260Z,1016.01
2019-03-25T09:12:47.239Z,1015.97
2019-03-25T09:13:47.431Z,1016.02
2019-03-25T09:14:47.222Z,1015.89
2019-03-25T09:15:47.421Z,1015.91
2019-03-25T09:16:47.209Z,1015.88
2019-03-25T09:17:47.199Z,1015.97
2019-03-25T09:18:47.413Z,1015.97
2019-03-25T09:19:47.406Z,1015.95
2019-03-25T09:20:47.209Z,1015.92
2019-03-25T09:21:47.171Z,1015.94
2019-03-25T09:22:47.174Z,1015.97
2019-03-25T09:23:47.167Z,1016.01
2019-03-25T09:24:47.148Z,1015.97
2019-03-25T09:25:47.369Z,1016.00
2019-03-25T09:26:47.335Z,1015.99
2019-03-25T09:27:47.134Z,1016.04
2019-03-25T09:28:47.325Z,1016.03
2019-03-25T09:29:47.114Z,1016.04
2019-03-25T09:30:47.100Z,1016.01
2019-03-25T09:31:47.298Z,1016.09
2019-03-25T09:32:47.094Z,1016.12
2019-03-25T09:33:47.082Z,1016.13
2019-03-25T09:34:47.279Z,1016.04
2019-03-25T09:35:47.083Z,1016.04
2019-03-25T09:36:47.062Z,1016.08
2019-03-25T09:37:47.053Z,1016.07
2019-03-25T09:38:47.267Z,1016.13
2019-03-25T09:39:47.260Z,1016.06
2019-03-25T09:40:47.231Z,1015.94
2019-03-25T09:41:47.046Z,1016.03
2019-03-25T09:42:47.027Z,1016.01
2019-03-25T09:43:47.041Z,1015.91
2019-03-25T09:44:47.030Z,1015.95
2019-03-25T09:45:47.007Z,1016.05
2019-03-25T09:46:47.192Z,1016.04
2019-03-25T09:47:47.213Z,1016.08
2019-03-25T09:48:47.000Z,1016.02
2019-03-25T09:49:46.966Z,1016.06
2019-03-25T09:50:46.981Z,1016.11
2019-03-25T09:51:46.980Z,1016.22
2019-03-25T09:52:46.948Z,1016.18
2019-03-25T09:53:46.937Z,1016.20
2019-03-25T09:54:46.938Z,1016.21
2019-03-25T09:55:46.937Z,1016.24
2019-03-25T09:56:46.915Z,1016.15
2019-03-25T09:57:46.913Z,1016.17
2019-03-25T09:58:46.901Z,1016.17
2019-03-25T09:59:46.908Z,1016.18
2019-03-25T10:00:46.910Z,1016.29
2019-03-25T10:01:46.898Z,1016.34
2019-03-25T10:02:46.887Z,1016.28
2019-03-25T10:03:46.876Z,1016.37
2019-03-25T10:04:46.879Z,1016.33
2019-03-25T10:05:46.854Z,1016.32
2019-03-25T10:06:47.110Z,1016.43
2019-03-25T10:07:46.850Z,1016.38
2019-03-25T10:08:46.854Z,1016.38
2019-03-25T10:09:46.846Z,1016.33
2019-03-25T10:10:47.024Z,1016.34
2019-03-25T10:11:46.809Z,1016.36
2019-03-25T10:12:46.804Z,1016.35
2019-03-25T10:13:46.800Z,1016.41
2019-03-25T10:14:46.803Z,1016.41
2019-03-25T10:15:46.798Z,1016.40
2019-03-25T10:16:46.994Z,1016.34
2019-03-25T10:17:46.972Z,1016.32
2019-03-25T10:18:46.765Z,1016.31
2019-03-25T10:19:46.751Z,1016.29
2019-03-25T10:20:46.958Z,1016.23
2019-03-25T10:21:46.743Z,1016.28
2019-03-25T10:22:46.950Z,1016.26
2019-03-25T10:23:46.952Z,1016.21
2019-03-25T10:24:46.723Z,1016.23
2019-03-25T10:25:46.942Z,1016.23
2019-03-25T10:26:46.705Z,1016.23
2019-03-25T10:27:46.899Z,1016.52
2019-03-25T10:28:48.767Z,1016.84
2019-03-25T10:29:46.688Z,1016.94
2019-03-25T10:30:46.893Z,1016.82
2019-03-25T10:31:46.669Z,1016.75
2019-03-25T10:32:46.667Z,1016.72
2019-03-25T10:33:46.667Z,1016.77
2019-03-25T10:34:46.660Z,1016.69
2019-03-25T10:35:46.856Z,1016.80
2019-03-25T10:36:46.853Z,1016.77
2019-03-25T10:37:46.649Z,1016.74
2019-03-25T10:38:46.834Z,1016.72
2019-03-25T10:39:46.619Z,1016.71
2019-03-25T10:40:46.611Z,1016.73
2019-03-25T10:41:46.603Z,1016.81
2019-03-25T10:42:46.799Z,1016.71
2019-03-25T10:43:46.590Z,1016.71
2019-03-25T10:44:46.583Z,1016.79
2019-03-25T10:45:46.795Z,1016.73
2019-03-25T10:46:46.585Z,1016.73
2019-03-25T10:47:46.576Z,1016.79
2019-03-25T10:48:46.561Z,1016.70
2019-03-25T10:49:46.543Z,1016.78
2019-03-25T10:50:46.535Z,1016.77
2019-03-25T10:51:46.531Z,1016.72
2019-03-25T10:52:46.514Z,1016.76
2019-03-25T10:53:46.717Z,1016.75
2019-03-25T10:54:46.674Z,1016.75
2019-03-25T10:55:46.499Z,1016.74
2019-03-25T10:56:49.316Z,1016.75
2019-03-25T10:57:46.482Z,1016.68
2019-03-25T10:58:46.690Z,1016.68
2019-03-25T10:59:46.472Z,1016.71
2019-03-25T11:00:46.454Z,1016.65
2019-03-25T11:01:46.656Z,1016.65
2019-03-25T11:02:46.448Z,1016.62
2019-03-25T11:03:46.439Z,1016.63
2019-03-25T11:04:46.441Z,1016.66
2019-03-25T11:05:46.430Z,1016.68
2019-03-25T11:06:46.426Z,1016.75
2019-03-25T11:07:46.410Z,1016.72
2019-03-25T11:08:46.399Z,1016.79
2019-03-25T11:09:46.390Z,1016.81
2019-03-25T11:10:46.589Z,1016.75
2019-03-25T11:11:46.583Z,1016.59
2019-03-25T11:12:46.591Z,1016.76
2019-03-25T11:13:46.367Z,1016.71
2019-03-25T11:14:46.358Z,1016.83
2019-03-25T11:15:46.350Z,1016.66
2019-03-25T11:16:46.346Z,1016.77
2019-03-25T11:17:46.341Z,1016.73
2019-03-25T11:18:46.334Z,1016.82
2019-03-25T11:19:46.326Z,1016.86
2019-03-25T11:20:46.324Z,1016.86
2019-03-25T11:21:46.324Z,1016.80
2019-03-25T11:22:46.313Z,1016.80
2019-03-25T11:23:46.289Z,1016.78
2019-03-25T11:24:46.494Z,1016.92
2019-03-25T11:25:46.477Z,1016.83
2019-03-25T11:26:46.280Z,1016.88
2019-03-25T11:27:54.036Z,1016.88
2019-03-25T11:28:46.460Z,1016.79
2019-03-25T11:29:46.250Z,1016.78
2019-03-25T11:30:46.271Z,1016.81
2019-03-25T11:31:46.230Z,1016.72
2019-03-25T11:32:46.243Z,1016.73
2019-03-25T11:33:46.431Z,1016.81
2019-03-25T11:34:46.220Z,1016.83
2019-03-25T11:35:46.198Z,1017.03
2019-03-25T11:36:46.198Z,1017.01
2019-03-25T11:37:46.203Z,1017.34
2019-03-25T11:38:46.203Z,1017.42
2019-03-25T11:39:46.180Z,1017.35
2019-03-25T11:40:46.169Z,1017.41
2019-03-25T11:41:46.156Z,1017.32
2019-03-25T11:42:46.160Z,1017.21
2019-03-25T11:43:46.155Z,1017.15
2019-03-25T11:44:46.139Z,1017.16
2019-03-25T11:45:46.123Z,1017.14
2019-03-25T11:46:46.121Z,1017.15
2019-03-25T11:47:46.109Z,1017.13
2019-03-25T11:48:46.115Z,1017.04
2019-03-25T11:49:46.113Z,1017.06
2019-03-25T11:50:46.092Z,1017.01
2019-03-25T11:51:46.096Z,1017.05
2019-03-25T11:52:46.093Z,1017.04
2019-03-25T11:53:46.066Z,1017.10
2019-03-25T11:54:46.071Z,1017.01
2019-03-25T11:55:46.063Z,1017.01
2019-03-25T11:56:46.249Z,1017.01
2019-03-25T11:57:46.074Z,1017.08
2019-03-25T11:58:46.058Z,1017.06
2019-03-25T11:59:46.034Z,1017.19
2019-03-25T12:00:46.017Z,1017.05
2019-03-25T12:01:46.008Z,1017.09
2019-03-25T12:02:46.002Z,1017.17
2019-03-25T12:03:46.005Z,1017.18
2019-03-25T12:04:45.993Z,1017.13
2019-03-25T12:05:46.194Z,1017.22